Time;durP1;ratioP1;P1;durP2;ratioP2;P2;SDS_P1;SDS_P2;PMS_P1;PMS_P2;Temp;Humidity;BMP_temperature;BMP_pressure;BME280_temperature;BME280_humidity;BME280_pressure;Samples;Min_cycle;Max_cycle;Signal;HPM_P1;HPM_P2
2021/07/01 00:00:18;;;;;;;1.67;1.58;;;13.10;99.90;;;;;;5075513;28;20038;-74
2021/07/01 00:02:44;;;;;;;3.22;1.65;;;13.20;99.90;;;;;;5007782;28;20029;-75
2021/07/01 00:05:14;;;;;;;2.13;1.80;;;13.20;99.90;;;;;;5002255;28;20052;-75
2021/07/01 00:07:41;;;;;;;2.35;2.00;;;13.20;99.90;;;;;;5060418;28;20030;-77
2021/07/01 00:10:10;;;;;;;4.53;2.03;;;13.20;99.90;;;;;;5066655;28;20029;-75
2021/07/01 00:12:36;;;;;;;2.80;2.28;;;13.30;99.90;;;;;;5003510;28;20033;-75
2021/07/01 00:15:05;;;;;;;2.63;1.63;;;13.30;99.90;;;;;;5071807;28;20053;-77
2021/07/01 00:17:30;;;;;;;3.65;1.92;;;13.20;99.90;;;;;;4992173;28;20026;-77
2021/07/01 00:19:56;;;;;;;1.52;1.42;;;13.20;99.90;;;;;;4992063;28;20030;-76
2021/07/01 00:22:22;;;;;;;1.50;1.40;;;13.00;99.90;;;;;;5060110;28;20113;-76
2021/07/01 00:24:47;;;;;;;4.78;2.33;;;12.90;99.90;;;;;;4992587;28;20057;-77
2021/07/01 00:27:13;;;;;;;4.90;1.92;;;13.00;99.90;;;;;;4994619;28;20034;-76
2021/07/01 00:29:39;;;;;;;2.15;1.92;;;13.00;99.90;;;;;;4996695;28;20045;-78
2021/07/01 00:32:05;;;;;;;2.78;1.60;;;13.00;99.90;;;;;;4992672;28;20051;-76
2021/07/01 00:34:32;;;;;;;2.00;1.90;;;13.00;99.90;;;;;;5059016;28;20023;-77
2021/07/01 00:36:58;;;;;;;4.72;2.10;;;13.00;99.90;;;;;;4991724;28;20417;-78
2021/07/01 00:39:23;;;;;;;2.45;2.00;;;13.10;99.90;;;;;;4990853;28;20114;-77
2021/07/01 00:41:49;;;;;;;5.22;2.20;;;13.20;99.90;;;;;;4991344;28;20026;-75
2021/07/01 00:44:14;;;;;;;2.58;1.80;;;13.20;99.90;;;;;;5058329;28;20392;-76
2021/07/01 00:46:40;;;;;;;2.10;1.90;;;13.20;99.90;;;;;;4991631;28;20054;-76
2021/07/01 00:49:06;;;;;;;2.28;2.08;;;13.20;99.90;;;;;;4990977;28;20121;-76
2021/07/01 00:51:31;;;;;;;2.92;1.95;;;13.20;99.90;;;;;;4990409;28;20027;-76
2021/07/01 00:53:57;;;;;;;3.22;2.20;;;13.30;99.90;;;;;;5058451;28;20391;-76
2021/07/01 00:56:24;;;;;;;2.25;2.10;;;13.40;99.90;;;;;;5058499;28;20041;-77
2021/07/01 00:58:53;;;;;;;3.58;1.90;;;13.40;99.90;;;;;;5058489;28;20391;-77
2021/07/01 01:01:20;;;;;;;2.80;2.53;;;13.30;99.90;;;;;;4990520;28;20033;-74
2021/07/01 01:03:46;;;;;;;3.13;1.83;;;13.20;99.90;;;;;;4989230;28;20667;-76
2021/07/01 01:06:14;;;;;;;1.60;1.50;;;13.30;99.90;;;;;;4990805;28;20018;-75
2021/07/01 01:08:40;;;;;;;3.85;1.90;;;13.20;99.90;;;;;;4990634;28;20499;-77
2021/07/01 01:11:06;;;;;;;1.60;1.50;;;13.20;99.90;;;;;;4990480;28;20039;-77
2021/07/01 01:13:32;;;;;;;2.28;1.63;;;13.00;99.90;;;;;;4991210;28;20540;-77
2021/07/01 01:16:01;;;;;;;2.65;1.70;;;13.10;99.90;;;;;;4991276;28;20035;-77
2021/07/01 01:18:27;;;;;;;2.25;2.05;;;13.20;99.90;;;;;;4990996;28;20475;-77
2021/07/01 01:20:57;;;;;;;3.83;2.15;;;13.10;99.90;;;;;;5057333;28;20023;-77
2021/07/01 01:23:24;;;;;;;3.28;2.10;;;13.20;99.90;;;;;;4990907;28;20095;-77
2021/07/01 01:25:52;;;;;;;2.63;2.08;;;13.30;99.90;;;;;;4991071;28;20033;-77
2021/07/01 01:28:18;;;;;;;2.28;1.83;;;13.30;99.90;;;;;;4990289;28;20030;-76
2021/07/01 01:30:44;;;;;;;2.05;1.80;;;13.20;99.90;;;;;;4989551;28;20101;-76
2021/07/01 01:33:11;;;;;;;2.67;2.10;;;13.10;99.90;;;;;;4990307;28;20050;-75
2021/07/01 01:35:37;;;;;;;2.22;1.70;;;13.20;99.90;;;;;;4992459;28;20079;-77
2021/07/01 01:38:07;;;;;;;2.85;2.55;;;13.20;99.90;;;;;;5059214;28;20029;-77
2021/07/01 01:40:33;;;;;;;2.60;2.40;;;13.30;99.90;;;;;;4991251;28;20065;-76
2021/07/01 01:42:59;;;;;;;5.65;2.20;;;13.30;99.90;;;;;;4992982;28;20042;-78
2021/07/01 01:45:24;;;;;;;4.63;2.20;;;13.40;99.90;;;;;;4992538;28;20061;-77
2021/07/01 01:47:51;;;;;;;2.60;2.17;;;13.40;99.90;;;;;;5058129;28;20373;-75
2021/07/01 01:50:21;;;;;;;2.30;2.10;;;13.30;99.90;;;;;;4989703;28;20041;-76
2021/07/01 01:52:48;;;;;;;2.67;2.05;;;13.20;99.90;;;;;;4989732;28;20033;-77
2021/07/01 01:55:15;;;;;;;4.28;1.95;;;13.30;99.90;;;;;;5057321;28;20099;-77
2021/07/01 01:57:45;;;;;;;4.57;2.13;;;13.20;99.90;;;;;;4989977;28;20028;-75
2021/07/01 02:00:13;;;;;;;3.75;1.95;;;13.20;99.90;;;;;;4989662;28;20056;-76
2021/07/01 02:02:41;;;;;;;2.22;2.08;;;13.10;99.90;;;;;;5057357;28;20018;-76
2021/07/01 02:05:08;;;;;;;2.20;2.05;;;13.20;99.90;;;;;;4989736;28;20022;-76
2021/07/01 02:07:35;;;;;;;2.20;2.10;;;13.20;99.90;;;;;;4990036;28;20034;-77
2021/07/01 02:10:05;;;;;;;3.28;2.35;;;13.20;99.90;;;;;;4990152;28;20033;-77
2021/07/01 02:12:31;;;;;;;2.63;2.42;;;13.20;99.90;;;;;;5058393;28;20038;-77
2021/07/01 02:14:58;;;;;;;4.43;2.20;;;13.30;99.90;;;;;;5020678;23;20047;-73
2021/07/01 02:17:23;;;;;;;2.08;1.98;;;13.30;99.90;;;;;;4982498;28;20034;-71
2021/07/01 02:19:49;;;;;;;3.42;2.60;;;13.30;99.90;;;;;;4969277;28;20392;-74
2021/07/01 02:22:15;;;;;;;2.33;2.22;;;13.30;99.90;;;;;;4970104;28;20499;-73
2021/07/01 02:24:42;;;;;;;2.22;2.13;;;13.20;99.90;;;;;;4969907;28;20038;-70
2021/07/01 02:27:09;;;;;;;3.72;2.50;;;13.30;99.90;;;;;;4970105;28;20101;-72
2021/07/01 02:29:35;;;;;;;2.05;1.90;;;13.30;99.90;;;;;;4951855;28;20023;-71
2021/07/01 02:32:03;;;;;;;2.97;2.17;;;13.30;99.90;;;;;;4970038;28;20655;-71
2021/07/01 02:34:29;;;;;;;2.63;2.42;;;13.30;99.90;;;;;;4969805;28;20034;-72
2021/07/01 02:36:54;;;;;;;2.58;2.38;;;13.30;99.90;;;;;;4969993;28;20039;-71
2021/07/01 02:39:20;;;;;;;3.45;2.75;;;13.30;99.90;;;;;;4969158;28;20443;-72
2021/07/01 02:41:46;;;;;;;3.10;2.13;;;13.30;99.90;;;;;;4969721;28;20042;-71
2021/07/01 02:44:11;;;;;;;3.95;2.13;;;13.30;99.90;;;;;;4970051;28;20073;-71
2021/07/01 02:46:37;;;;;;;2.70;2.50;;;13.30;99.90;;;;;;4990823;28;20086;-71
2021/07/01 02:49:03;;;;;;;4.80;2.33;;;13.30;99.90;;;;;;4990139;28;20034;-71
2021/07/01 02:51:28;;;;;;;4.88;2.50;;;13.30;99.90;;;;;;4989306;28;20031;-72
2021/07/01 02:53:54;;;;;;;4.93;2.35;;;13.40;99.90;;;;;;4989294;28;20026;-72
2021/07/01 02:56:21;;;;;;;2.88;2.00;;;13.30;99.90;;;;;;4988859;28;20445;-70
2021/07/01 02:58:47;;;;;;;2.58;2.38;;;13.20;99.90;;;;;;4989026;28;20031;-72
2021/07/01 03:01:14;;;;;;;2.80;2.10;;;13.20;99.90;;;;;;4988002;28;20419;-70
2021/07/01 03:03:39;;;;;;;7.22;2.25;;;13.30;99.90;;;;;;4989010;28;20019;-71
2021/07/01 03:06:05;;;;;;;2.60;2.10;;;13.30;99.90;;;;;;4988693;28;20038;-72
2021/07/01 03:08:31;;;;;;;2.58;2.40;;;13.20;99.90;;;;;;4988575;28;20793;-72
2021/07/01 03:10:56;;;;;;;2.17;2.03;;;13.30;99.90;;;;;;4988147;28;20117;-73
2021/07/01 03:13:22;;;;;;;4.78;2.53;;;13.10;99.90;;;;;;4988892;28;20152;-73
2021/07/01 03:15:48;;;;;;;3.70;2.38;;;13.20;99.90;;;;;;4987608;28;20113;-72
2021/07/01 03:18:13;;;;;;;3.35;2.65;;;13.30;99.90;;;;;;4973430;28;20034;-72
2021/07/01 03:20:39;;;;;;;5.85;3.00;;;13.30;99.90;;;;;;4990527;28;20014;-72
2021/07/01 03:23:05;;;;;;;4.15;2.42;;;13.30;99.90;;;;;;4986362;28;20018;-75
2021/07/01 03:25:30;;;;;;;4.80;3.08;;;13.40;99.90;;;;;;4991340;28;20030;-74
2021/07/01 03:27:56;;;;;;;5.30;2.95;;;13.30;99.90;;;;;;4974234;28;20033;-74
2021/07/01 03:30:22;;;;;;;2.83;2.50;;;13.30;99.90;;;;;;4990798;28;20022;-74
2021/07/01 03:32:48;;;;;;;2.58;2.40;;;13.30;99.90;;;;;;4974433;28;20118;-74
2021/07/01 03:35:14;;;;;;;2.97;2.70;;;13.40;99.90;;;;;;4991586;28;20106;-74
2021/07/01 03:37:39;;;;;;;3.10;2.35;;;13.40;99.90;;;;;;4991506;28;20057;-74
2021/07/01 03:40:08;;;;;;;2.20;2.10;;;13.40;99.90;;;;;;4990898;28;20080;-76
2021/07/01 03:42:34;;;;;;;2.92;2.42;;;13.40;99.90;;;;;;4972398;28;20027;-74
2021/07/01 03:45:00;;;;;;;2.80;2.58;;;13.40;99.90;;;;;;4954732;28;20031;-74
2021/07/01 03:47:25;;;;;;;2.53;2.33;;;13.40;99.90;;;;;;4972302;28;20038;-75
2021/07/01 03:49:51;;;;;;;3.70;2.25;;;13.40;99.90;;;;;;4971583;28;20031;-73
2021/07/01 03:52:17;;;;;;;2.55;2.35;;;13.40;99.90;;;;;;4988726;28;20035;-73
2021/07/01 03:54:42;;;;;;;3.90;2.38;;;13.50;99.90;;;;;;4991840;28;20027;-73
2021/07/01 03:57:08;;;;;;;3.35;2.10;;;13.40;99.90;;;;;;4992098;28;20065;-75
2021/07/01 03:59:34;;;;;;;2.72;2.53;;;13.40;99.90;;;;;;4992044;28;20035;-75
2021/07/01 04:02:00;;;;;;;2.78;2.58;;;13.60;99.90;;;;;;4992474;28;20084;-74
2021/07/01 04:04:25;;;;;;;5.30;2.40;;;13.50;99.90;;;;;;5005318;28;20018;-78
2021/07/01 04:06:51;;;;;;;5.43;2.58;;;13.60;99.90;;;;;;4996451;28;20031;-82
2021/07/01 04:09:17;;;;;;;3.35;2.42;;;13.60;99.90;;;;;;5005636;28;20031;-74
2021/07/01 04:11:42;;;;;;;2.38;2.17;;;13.50;99.90;;;;;;5001613;28;20101;-75
2021/07/01 04:14:08;;;;;;;2.80;2.60;;;13.60;99.90;;;;;;4994471;28;20031;-75
2021/07/01 04:16:34;;;;;;;2.45;2.30;;;13.60;99.90;;;;;;4998123;28;20031;-75
2021/07/01 04:19:00;;;;;;;2.92;2.20;;;13.60;99.90;;;;;;4996305;28;20026;-74
2021/07/01 04:21:27;;;;;;;4.22;2.10;;;13.60;99.90;;;;;;4968368;28;20100;-74
2021/07/01 04:23:55;;;;;;;2.15;2.05;;;13.50;99.90;;;;;;4958011;28;20114;-77
2021/07/01 04:26:20;;;;;;;3.85;2.20;;;13.40;99.90;;;;;;4975975;28;20031;-77
2021/07/01 04:28:46;;;;;;;4.97;2.28;;;13.60;99.90;;;;;;4972308;28;20396;-73
2021/07/01 04:31:12;;;;;;;2.85;2.58;;;13.60;99.90;;;;;;4956020;28;20544;-74
2021/07/01 04:33:38;;;;;;;3.60;2.42;;;13.70;99.90;;;;;;4974194;28;20480;-73
2021/07/01 04:36:03;;;;;;;8.13;2.33;;;13.60;99.90;;;;;;4957652;28;20035;-72
2021/07/01 04:38:29;;;;;;;2.33;2.13;;;13.50;99.90;;;;;;4974568;28;20366;-73
2021/07/01 04:40:55;;;;;;;3.15;2.30;;;13.50;99.90;;;;;;4976061;28;20047;-77
2021/07/01 04:43:21;;;;;;;4.57;2.25;;;13.60;99.90;;;;;;4975876;28;20023;-77
2021/07/01 04:45:47;;;;;;;3.10;2.03;;;13.60;99.90;;;;;;4975179;28;20169;-75
2021/07/01 04:48:13;;;;;;;5.03;2.38;;;13.70;99.90;;;;;;4974927;28;20161;-73
2021/07/01 04:50:38;;;;;;;3.85;2.20;;;13.70;99.90;;;;;;4977724;28;20026;-75
2021/07/01 04:53:04;;;;;;;3.90;2.53;;;13.80;99.90;;;;;;4993857;28;20036;-76
2021/07/01 04:55:30;;;;;;;2.78;2.55;;;14.30;99.90;;;;;;4992641;28;20030;-74
2021/07/01 04:57:55;;;;;;;2.30;2.10;;;14.40;99.90;;;;;;4992819;28;20023;-75
2021/07/01 05:00:21;;;;;;;5.28;2.20;;;14.60;99.90;;;;;;4974589;28;20181;-74
2021/07/01 05:02:47;;;;;;;2.50;2.30;;;14.70;99.90;;;;;;4992739;28;20050;-74
2021/07/01 05:05:12;;;;;;;2.15;2.03;;;14.80;99.90;;;;;;4992448;28;20049;-73
2021/07/01 05:07:46;;;;;;;3.15;2.20;;;14.70;99.90;;;;;;4992287;28;20365;-74
2021/07/01 05:10:14;;;;;;;2.78;1.92;;;14.70;99.90;;;;;;4971334;28;20037;-77
2021/07/01 05:12:41;;;;;;;3.63;1.90;;;14.60;99.90;;;;;;4993974;28;20113;-76
2021/07/01 05:15:07;;;;;;;2.50;2.15;;;14.30;99.90;;;;;;4973438;28;20477;-77
2021/07/01 05:17:36;;;;;;;4.32;2.53;;;14.20;99.90;;;;;;4962061;28;20122;-77
2021/07/01 05:20:03;;;;;;;3.08;2.50;;;14.30;99.90;;;;;;4994059;28;20046;-78
2021/07/01 05:22:29;;;;;;;3.28;2.20;;;14.20;99.90;;;;;;5000381;28;20019;-77
2021/07/01 05:24:55;;;;;;;2.28;2.17;;;14.10;99.90;;;;;;5000683;28;20048;-76
2021/07/01 05:27:20;;;;;;;2.53;2.33;;;14.20;99.90;;;;;;5002912;28;20026;-75
2021/07/01 05:29:46;;;;;;;3.63;1.98;;;14.20;99.90;;;;;;4988622;28;20036;-78
2021/07/01 05:32:13;;;;;;;6.05;2.50;;;14.20;99.90;;;;;;5005846;28;20053;-77
2021/07/01 05:34:39;;;;;;;2.80;2.60;;;14.30;99.90;;;;;;4982919;28;20034;-75
2021/07/01 05:37:05;;;;;;;2.20;2.00;;;14.40;99.90;;;;;;4982558;28;20547;-75
2021/07/01 05:39:31;;;;;;;5.05;2.30;;;14.40;99.90;;;;;;5000770;28;20046;-76
2021/07/01 05:41:57;;;;;;;4.43;2.28;;;14.30;99.90;;;;;;4997439;28;20064;-75
2021/07/01 05:44:22;;;;;;;2.47;2.28;;;14.40;99.90;;;;;;4996584;28;20018;-74
2021/07/01 05:46:48;;;;;;;5.10;3.08;;;14.30;99.90;;;;;;4992898;28;20028;-76
2021/07/01 05:49:14;;;;;;;2.30;2.20;;;14.30;99.90;;;;;;4993837;28;20030;-76
2021/07/01 05:51:41;;;;;;;4.13;2.15;;;14.30;99.90;;;;;;4993609;28;20430;-74
2021/07/01 05:54:28;;;;;;;2.17;1.98;;;14.20;99.90;;;;;;4995707;28;20023;-76
2021/07/01 05:56:54;;;;;;;4.10;2.40;;;14.40;99.90;;;;;;4994560;28;20033;-76
2021/07/01 05:59:20;;;;;;;4.43;3.10;;;14.40;99.90;;;;;;4994876;28;20026;-76
2021/07/01 06:01:46;;;;;;;3.17;2.30;;;14.50;99.90;;;;;;4996368;28;20018;-77
2021/07/01 06:04:12;;;;;;;3.95;2.55;;;14.60;99.90;;;;;;5001710;28;20468;-77
2021/07/01 06:06:43;;;;;;;3.92;3.63;;;14.70;99.90;;;;;;5001072;28;20052;-77
2021/07/01 06:09:09;;;;;;;3.38;2.47;;;14.80;99.90;;;;;;5003859;28;20083;-77
2021/07/01 06:11:36;;;;;;;4.95;2.90;;;14.90;99.90;;;;;;4989624;28;20054;-78
2021/07/01 06:14:05;;;;;;;3.80;2.13;;;14.90;99.90;;;;;;5002418;28;20023;-77
2021/07/01 06:16:32;;;;;;;3.15;2.90;;;14.80;99.90;;;;;;4984822;28;20087;-76
2021/07/01 06:19:01;;;;;;;5.97;2.78;;;14.80;99.90;;;;;;5003520;28;20105;-78
2021/07/01 06:21:28;;;;;;;2.50;2.33;;;14.80;99.90;;;;;;5004999;28;20023;-77
2021/07/01 06:23:54;;;;;;;2.83;2.53;;;14.80;99.90;;;;;;5007518;28;20022;-77
2021/07/01 06:26:28;;;;;;;3.55;2.60;;;14.80;99.90;;;;;;4981942;28;20030;-75
2021/07/01 06:28:56;;;;;;;3.90;3.22;;;14.80;99.90;;;;;;4983195;28;20061;-78
2021/07/01 06:31:22;;;;;;;2.97;2.78;;;15.00;99.90;;;;;;5000018;28;20053;-76
2021/07/01 06:33:48;;;;;;;3.20;2.90;;;15.00;99.90;;;;;;5001485;28;20037;-75
2021/07/01 06:36:17;;;;;;;4.45;2.70;;;15.10;99.90;;;;;;5002289;28;20057;-78
2021/07/01 06:38:50;;;;;;;3.28;2.83;;;15.00;99.90;;;;;;5004108;28;20051;-76
2021/07/01 06:41:17;;;;;;;4.68;2.65;;;15.10;99.90;;;;;;5006238;28;20053;-76
2021/07/01 06:43:47;;;;;;;3.35;2.67;;;14.90;99.90;;;;;;4988910;28;20019;-78
2021/07/01 06:46:17;;;;;;;3.85;2.60;;;14.90;99.90;;;;;;4990647;28;20037;-76
2021/07/01 06:48:43;;;;;;;6.30;3.20;;;15.00;99.90;;;;;;5008636;28;20030;-77
2021/07/01 06:51:10;;;;;;;2.95;2.70;;;15.20;99.90;;;;;;5006108;28;20098;-78
2021/07/01 06:53:39;;;;;;;4.45;2.70;;;15.40;99.90;;;;;;4989924;28;20392;-77
2021/07/01 06:56:05;;;;;;;6.30;3.08;;;15.30;99.90;;;;;;5005642;28;20108;-75
2021/07/01 06:58:30;;;;;;;5.85;2.63;;;15.30;99.90;;;;;;5007985;28;20460;-77
2021/07/01 07:00:57;;;;;;;7.60;2.60;;;15.30;99.90;;;;;;5007622;28;20022;-74
2021/07/01 07:03:24;;;;;;;2.67;2.42;;;15.40;99.90;;;;;;5002964;28;20030;-76
2021/07/01 07:05:51;;;;;;;3.95;2.58;;;15.50;99.90;;;;;;4988983;28;20026;-77
2021/07/01 07:08:18;;;;;;;4.90;2.47;;;15.50;99.90;;;;;;5006045;28;20103;-76
2021/07/01 07:10:45;;;;;;;2.65;2.40;;;15.40;99.90;;;;;;5003274;28;20069;-75
2021/07/01 07:13:11;;;;;;;3.40;2.10;;;15.40;99.90;;;;;;4994071;28;20026;-76
2021/07/01 07:15:38;;;;;;;4.57;2.30;;;15.50;99.90;;;;;;4992792;28;20026;-76
2021/07/01 07:18:16;;;;;;;4.90;1.73;;;15.10;99.90;;;;;;4978707;28;20046;-76
2021/07/01 07:20:45;;;;;;;1.85;1.75;;;15.00;99.90;;;;;;4999453;28;20667;-77
2021/07/01 07:23:17;;;;;;;4.20;2.80;;;15.10;99.90;;;;;;4981451;28;20029;-76
2021/07/01 07:25:43;;;;;;;2.67;2.28;;;15.40;99.90;;;;;;4996911;28;20045;-77
2021/07/01 07:28:10;;;;;;;3.00;2.20;;;15.40;99.90;;;;;;4995070;28;20434;-75
2021/07/01 07:30:37;;;;;;;2.30;1.70;;;15.20;99.90;;;;;;4995621;28;20022;-76
2021/07/01 07:33:05;;;;;;;3.72;2.30;;;15.20;99.90;;;;;;4997620;28;20094;-75
2021/07/01 07:35:32;;;;;;;2.90;2.70;;;15.20;99.90;;;;;;4997419;28;20030;-76
2021/07/01 07:37:59;;;;;;;2.60;2.40;;;15.10;99.90;;;;;;4994828;28;20435;-75
2021/07/01 07:40:26;;;;;;;2.83;2.63;;;15.00;99.90;;;;;;5003014;28;20471;-76
2021/07/01 07:42:51;;;;;;;6.05;4.07;;;15.00;99.90;;;;;;5012137;28;20018;-76
2021/07/01 07:45:18;;;;;;;2.78;2.58;;;14.90;99.90;;;;;;5009993;28;20031;-75
2021/07/01 07:47:44;;;;;;;3.13;2.90;;;15.00;99.90;;;;;;5003867;28;20041;-75
2021/07/01 07:50:12;;;;;;;3.10;2.80;;;14.90;99.90;;;;;;4988869;28;20054;-75
2021/07/01 07:52:45;;;;;;;3.50;3.20;;;15.00;99.90;;;;;;5009092;28;20027;-76
2021/07/01 07:55:14;;;;;;;7.05;2.97;;;15.20;99.90;;;;;;5007305;28;20026;-77
2021/07/01 07:57:42;;;;;;;3.08;2.88;;;15.10;99.90;;;;;;4982797;28;20061;-75
2021/07/01 08:00:09;;;;;;;2.55;2.35;;;14.80;99.90;;;;;;4982832;28;20023;-76
2021/07/01 08:03:01;;;;;;;1.65;1.55;;;14.70;99.90;;;;;;4967247;28;20027;-76
2021/07/01 08:05:30;;;;;;;3.90;2.30;;;14.50;99.90;;;;;;4968495;28;20122;-75
2021/07/01 08:07:57;;;;;;;4.47;2.15;;;14.50;99.90;;;;;;4964777;28;20448;-77
2021/07/01 08:10:30;;;;;;;2.47;2.17;;;14.60;99.90;;;;;;4969705;28;20504;-75
2021/07/01 08:13:03;;;;;;;2.70;1.98;;;14.70;99.90;;;;;;4967423;28;20429;-77
2021/07/01 08:15:30;;;;;;;8.45;2.40;;;14.80;99.90;;;;;;4983290;28;20037;-76
2021/07/01 08:17:57;;;;;;;3.63;1.75;;;14.90;99.90;;;;;;4976787;28;20505;-76
2021/07/01 08:20:23;;;;;;;1.92;1.83;;;15.00;99.90;;;;;;4979528;28;20089;-76
2021/07/01 08:22:52;;;;;;;1.70;1.60;;;15.30;99.90;;;;;;4993737;28;20098;-76
2021/07/01 08:25:19;;;;;;;2.25;1.80;;;15.40;99.90;;;;;;4975747;28;20073;-75
2021/07/01 08:27:47;;;;;;;1.48;1.40;;;15.50;99.90;;;;;;4992738;28;20037;-77
2021/07/01 08:30:16;;;;;;;2.80;1.55;;;15.50;99.90;;;;;;4991814;28;20026;-75
2021/07/01 08:32:44;;;;;;;2.75;1.30;;;15.40;99.90;;;;;;4992217;28;20022;-76
2021/07/01 08:35:13;;;;;;;1.60;1.38;;;15.10;99.90;;;;;;4993672;28;20030;-77
2021/07/01 08:37:45;;;;;;;1.40;1.30;;;15.30;99.90;;;;;;4988790;28;20019;-77
2021/07/01 08:40:13;;;;;;;1.47;1.37;;;15.40;99.90;;;;;;4955142;28;20022;-76
2021/07/01 08:42:39;;;;;;;3.60;1.52;;;15.50;99.90;;;;;;4972783;28;20262;-77
2021/07/01 08:45:13;;;;;;;1.50;1.40;;;15.60;99.90;;;;;;4971933;28;20076;-76
2021/07/01 08:47:41;;;;;;;1.95;1.85;;;15.70;99.90;;;;;;4972536;28;20030;-76
2021/07/01 08:50:16;;;;;;;2.00;1.55;;;15.70;99.90;;;;;;4971432;28;20014;-76
2021/07/01 08:53:05;;;;;;;1.38;1.30;;;15.70;99.90;;;;;;4993972;28;20022;-76
2021/07/01 08:55:32;;;;;;;1.40;1.30;;;15.80;99.90;;;;;;4993895;28;20026;-78
2021/07/01 08:57:59;;;;;;;2.15;1.60;;;15.80;99.90;;;;;;4994651;28;20014;-76
2021/07/01 09:00:28;;;;;;;2.00;1.80;;;15.90;99.90;;;;;;4994164;28;20491;-77
2021/07/01 09:03:04;;;;;;;4.25;1.80;;;15.90;99.90;;;;;;4987017;28;20023;-76
2021/07/01 09:05:32;;;;;;;2.25;1.90;;;16.00;99.90;;;;;;4971722;28;20091;-75
2021/07/01 09:07:59;;;;;;;2.63;1.60;;;16.00;99.90;;;;;;4973561;28;20119;-75
2021/07/01 09:10:27;;;;;;;3.25;2.30;;;16.00;99.90;;;;;;4974021;28;20109;-79
2021/07/01 09:12:55;;;;;;;2.40;1.98;;;16.00;99.90;;;;;;4956480;28;20031;-77
2021/07/01 09:15:22;;;;;;;2.47;2.20;;;16.20;99.90;;;;;;4978310;28;20031;-77
2021/07/01 09:17:48;;;;;;;4.63;2.28;;;16.20;99.90;;;;;;4976657;28;20476;-78
2021/07/01 09:20:21;;;;;;;2.95;2.20;;;15.60;99.90;;;;;;4984278;28;20388;-76
2021/07/01 09:22:54;;;;;;;2.85;2.40;;;15.70;99.90;;;;;;4993458;28;20018;-77
2021/07/01 09:25:20;;;;;;;1.90;1.80;;;15.60;99.90;;;;;;4975205;28;20026;-77
2021/07/01 09:27:49;;;;;;;2.97;2.00;;;15.60;99.90;;;;;;4975479;28;20033;-77
2021/07/01 09:30:17;;;;;;;2.05;1.95;;;15.60;99.90;;;;;;4993056;28;20460;-76
2021/07/01 09:32:44;;;;;;;1.90;1.80;;;15.60;99.90;;;;;;4993575;28;20049;-77
2021/07/01 09:35:12;;;;;;;37.90;4.50;;;15.70;99.90;;;;;;4976997;28;20459;-78
2021/07/01 09:37:46;;;;;;;8.90;1.85;;;15.70;99.90;;;;;;4975866;28;20023;-76
2021/07/01 09:40:17;;;;;;;5.85;1.38;;;15.60;99.90;;;;;;4992567;28;20026;-78
2021/07/01 09:42:43;;;;;;;2.20;1.33;;;15.30;99.90;;;;;;4994994;28;20018;-76
2021/07/01 09:45:11;;;;;;;22.27;3.38;;;15.30;99.90;;;;;;4996074;28;20095;-77
2021/07/01 09:47:44;;;;;;;32.05;4.22;;;15.50;99.90;;;;;;4994805;28;20046;-76
2021/07/01 09:50:10;;;;;;;9.38;1.95;;;15.80;99.90;;;;;;4984773;28;20032;-75
2021/07/01 09:52:44;;;;;;;5.70;1.63;;;15.90;99.90;;;;;;4978102;28;20697;-77
2021/07/01 09:55:11;;;;;;;5.63;1.50;;;15.70;99.90;;;;;;4990534;28;20069;-77
2021/07/01 09:57:42;;;;;;;3.15;1.10;;;15.70;99.90;;;;;;4977673;28;20041;-77
2021/07/01 10:00:13;;;;;;;1.38;1.27;;;15.50;99.90;;;;;;4993778;28;20096;-77
2021/07/01 10:02:39;;;;;;;1.73;1.10;;;15.80;99.90;;;;;;4979311;28;20079;-77
2021/07/01 10:05:07;;;;;;;1.85;1.00;;;15.90;99.90;;;;;;4995249;28;20019;-76
2021/07/01 10:07:33;;;;;;;3.30;1.30;;;16.20;99.90;;;;;;4996295;28;20117;-75
2021/07/01 10:10:12;;;;;;;1.48;1.30;;;16.30;99.90;;;;;;4986398;28;20050;-75
2021/07/01 10:12:54;;;;;;;1.40;1.30;;;16.50;99.90;;;;;;4981555;28;20023;-76
2021/07/01 10:15:29;;;;;;;1.50;1.40;;;16.50;99.90;;;;;;4959109;28;20023;-77
2021/07/01 10:18:08;;;;;;;1.52;1.42;;;16.60;99.90;;;;;;4978967;28;20027;-76
2021/07/01 10:20:36;;;;;;;2.08;1.80;;;16.70;99.90;;;;;;4992847;28;20018;-80
2021/07/01 10:23:03;;;;;;;3.15;1.40;;;16.70;99.90;;;;;;4995244;28;20070;-78
2021/07/01 10:25:33;;;;;;;1.58;1.48;;;16.40;99.90;;;;;;4984020;28;20425;-76
2021/07/01 10:28:15;;;;;;;1.98;1.38;;;16.10;99.90;;;;;;4976761;28;20642;-77
2021/07/01 10:30:42;;;;;;;2.03;1.92;;;16.00;99.90;;;;;;4988861;28;20038;-78
2021/07/01 10:33:29;;;;;;;1.70;1.60;;;16.50;99.90;;;;;;4988789;28;20029;-78
2021/07/01 10:36:00;;;;;;;4.82;1.30;;;16.30;99.90;;;;;;4983170;28;20043;-77
2021/07/01 10:38:26;;;;;;;1.65;1.55;;;16.30;99.90;;;;;;4991767;28;20014;-77
2021/07/01 10:40:54;;;;;;;3.35;1.42;;;16.60;99.90;;;;;;4992693;28;20068;-76
2021/07/01 10:43:42;;;;;;;1.13;1.10;;;17.10;99.90;;;;;;4980541;28;20023;-76
2021/07/01 10:46:08;;;;;;;1.50;1.38;;;17.20;99.90;;;;;;4989954;28;20072;-77
2021/07/01 10:48:34;;;;;;;1.23;1.13;;;17.30;99.90;;;;;;4972097;28;20023;-77
2021/07/01 10:51:11;;;;;;;1.20;1.10;;;17.30;99.90;;;;;;4990674;28;20034;-77
2021/07/01 10:53:41;;;;;;;2.17;1.52;;;17.40;99.90;;;;;;4981386;28;20038;-76
2021/07/01 10:56:40;;;;;;;2.08;1.40;;;17.50;99.90;;;;;;4983516;28;20038;-77
2021/07/01 10:59:06;;;;;;;1.67;1.20;;;17.30;99.90;;;;;;4970321;28;20037;-77
2021/07/01 11:01:35;;;;;;;1.88;1.30;;;17.10;99.90;;;;;;4983116;28;20061;-78
2021/07/01 11:04:07;;;;;;;2.85;1.25;;;16.90;99.90;;;;;;4981561;28;20089;-76
2021/07/01 11:06:33;;;;;;;1.60;1.30;;;16.70;99.90;;;;;;4985552;28;20030;-76
2021/07/01 11:09:00;;;;;;;1.35;1.25;;;16.30;99.90;;;;;;4984598;28;20056;-77
2021/07/01 11:11:33;;;;;;;2.00;1.10;;;16.20;99.90;;;;;;4973364;28;20027;-77
2021/07/01 11:14:10;;;;;;;1.33;1.23;;;16.30;99.90;;;;;;4975188;28;20027;-77
2021/07/01 11:16:42;;;;;;;1.52;1.42;;;16.30;99.90;;;;;;4975576;28;20034;-76
2021/07/01 11:19:14;;;;;;;1.63;1.52;;;16.60;99.90;;;;;;4980375;28;20022;-76
2021/07/01 11:21:47;;;;;;;1.40;1.30;;;16.60;99.90;;;;;;4997120;28;20085;-76
2021/07/01 11:24:17;;;;;;;5.10;1.90;;;16.30;99.90;;;;;;4998950;28;20041;-77
2021/07/01 11:26:48;;;;;;;4.65;2.22;;;16.50;99.90;;;;;;4981367;28;20160;-76
2021/07/01 11:29:14;;;;;;;2.00;1.85;;;16.50;99.90;;;;;;5001415;28;20300;-76
2021/07/01 11:31:43;;;;;;;3.42;1.63;;;16.30;99.90;;;;;;4983848;28;20026;-78
2021/07/01 11:34:11;;;;;;;3.20;1.77;;;16.30;99.90;;;;;;5001719;28;20095;-78
2021/07/01 11:36:38;;;;;;;2.10;2.00;;;16.30;99.90;;;;;;4999072;28;20026;-76
2021/07/01 11:39:15;;;;;;;2.35;1.58;;;16.30;99.90;;;;;;4982120;28;20024;-78
2021/07/01 11:41:43;;;;;;;4.43;1.88;;;16.30;99.90;;;;;;5000313;28;20018;-77
2021/07/01 11:44:11;;;;;;;7.72;2.70;;;16.30;99.90;;;;;;4981756;28;20026;-77
2021/07/01 11:46:40;;;;;;;2.53;1.98;;;16.40;99.90;;;;;;5002739;28;20033;-76
2021/07/01 11:49:07;;;;;;;6.13;2.08;;;16.70;99.90;;;;;;4998869;28;20037;-77
2021/07/01 11:51:34;;;;;;;4.63;2.20;;;16.80;99.90;;;;;;4995988;28;20022;-76
2021/07/01 11:54:00;;;;;;;4.20;1.88;;;17.20;99.90;;;;;;4984892;28;20133;-75
2021/07/01 11:56:28;;;;;;;3.10;1.55;;;17.50;99.90;;;;;;4997889;28;20019;-79
2021/07/01 11:58:54;;;;;;;1.70;1.60;;;17.70;99.90;;;;;;4988367;28;20034;-77
2021/07/01 12:01:20;;;;;;;2.38;1.70;;;18.00;99.90;;;;;;4999137;28;20038;-77
2021/07/01 12:03:50;;;;;;;7.22;1.70;;;18.00;99.90;;;;;;4991385;28;20018;-75
2021/07/01 12:06:50;;;;;;;1.83;1.55;;;17.90;99.90;;;;;;4959980;28;20039;-76
2021/07/01 12:09:17;;;;;;;1.70;1.60;;;17.80;99.90;;;;;;4980323;28;20682;-76
2021/07/01 12:12:11;;;;;;;1.48;1.38;;;18.00;99.90;;;;;;4961990;28;20031;-75
2021/07/01 12:14:42;;;;;;;1.92;1.80;;;18.30;99.90;;;;;;4979768;28;20042;-76
2021/07/01 12:17:08;;;;;;;3.42;1.98;;;17.90;99.90;;;;;;4996323;28;20054;-77
2021/07/01 12:19:59;;;;;;;1.80;1.70;;;18.00;99.90;;;;;;4999007;28;20042;-75
2021/07/01 12:22:44;;;;;;;1.90;1.80;;;17.70;99.90;;;;;;5000350;28;20085;-75
2021/07/01 12:25:25;;;;;;;2.20;2.08;;;17.20;99.90;;;;;;4998710;28;20069;-76
2021/07/01 12:28:06;;;;;;;2.78;2.13;;;16.80;99.90;;;;;;5001654;28;20022;-76
2021/07/01 12:31:00;;;;;;;2.45;2.00;;;16.90;99.90;;;;;;5000116;28;20022;-75
2021/07/01 12:33:49;;;;;;;1.98;1.88;;;16.80;99.90;;;;;;4982886;28;20086;-77
2021/07/01 12:36:33;;;;;;;4.43;2.00;;;17.00;99.90;;;;;;4998143;28;20573;-76
2021/07/01 12:39:11;;;;;;;2.10;1.92;;;16.80;99.90;;;;;;4997640;28;20023;-76
2021/07/01 12:41:48;;;;;;;2.42;2.22;;;17.00;99.90;;;;;;4997249;28;20053;-75
2021/07/01 12:44:15;;;;;;;2.15;1.98;;;17.30;99.90;;;;;;4996931;28;20032;-76
2021/07/01 12:46:46;;;;;;;2.90;2.35;;;17.40;99.90;;;;;;4997514;28;20050;-75
2021/07/01 12:49:15;;;;;;;4.88;2.22;;;17.50;99.90;;;;;;4978832;28;20377;-77
2021/07/01 12:51:44;;;;;;;2.15;2.05;;;17.80;99.90;;;;;;4995226;28;20026;-76